Terminal Aerodrome Forecast
Issued by NWS

Home | Current Version | Previous Version | Text Only | Print | Product List | Glossary Off
Versions: 1 2 3 4 5 6 7 8 9 10 11 12 13 14

000
FTUS43 KICT 221740
TAFSLN
TAF
KSLN 221740Z 2218/2318 31020G30KT P6SM BKN080
     FM230100 30012KT P6SM SCT120
     FM230900 30015KT P6SM SCT025 OVC050
     FM231500 34020G30KT P6SM VCSH SCT025 OVC035=

USA.gov is the U.S. government's official web portal to all federal, state and local government web resources and services.